createdAt,value
2022-12-04T00:00:01.260Z,82.40
2022-12-04T00:02:29.962Z,83.90
2022-12-04T00:04:56.811Z,96.70
2022-12-04T00:07:23.664Z,92.50
2022-12-04T00:09:50.351Z,80.60
2022-12-04T00:12:17.229Z,96.90
2022-12-04T00:15:23.005Z,74.60
2022-12-04T00:19:57.340Z,63.00
2022-12-04T00:22:24.148Z,72.30
2022-12-04T00:24:50.953Z,71.90
2022-12-04T00:27:17.872Z,77.90
2022-12-04T00:29:44.551Z,109.80
2022-12-04T00:32:11.289Z,70.40
2022-12-04T00:34:38.154Z,71.80
2022-12-04T00:37:04.985Z,104.00
2022-12-04T00:39:31.683Z,85.80
2022-12-04T00:41:58.427Z,115.10
2022-12-04T00:44:25.074Z,105.30
2022-12-04T00:46:51.796Z,102.30
2022-12-04T00:49:18.682Z,92.70
2022-12-04T00:51:45.476Z,95.30
2022-12-04T00:54:12.200Z,165.00
2022-12-04T00:56:38.921Z,119.90
2022-12-04T00:59:05.768Z,105.70
2022-12-04T01:01:33.066Z,85.70
2022-12-04T01:04:00.121Z,166.70
2022-12-04T01:06:30.556Z,68.30
2022-12-04T01:08:59.155Z,114.80
2022-12-04T01:11:27.693Z,118.60
2022-12-04T01:13:55.300Z,120.80
2022-12-04T01:16:34.088Z,133.60
2022-12-04T01:19:05.007Z,148.40
2022-12-04T01:21:31.835Z,153.50
2022-12-04T01:23:59.641Z,162.90
2022-12-04T01:26:27.402Z,181.30
2022-12-04T01:28:54.148Z,215.40
2022-12-04T01:31:21.353Z,126.30
2022-12-04T01:33:49.863Z,114.60
2022-12-04T01:36:21.792Z,111.50
2022-12-04T01:38:48.819Z,90.50
2022-12-04T01:41:18.518Z,125.20
2022-12-04T01:43:45.480Z,147.90
2022-12-04T01:46:12.386Z,152.80
2022-12-04T01:48:45.877Z,86.80
2022-12-04T01:51:28.875Z,159.20
2022-12-04T01:54:00.813Z,156.80
2022-12-04T01:56:41.010Z,163.20
2022-12-04T01:59:09.975Z,132.80
2022-12-04T02:01:44.704Z,135.10
2022-12-04T02:04:12.133Z,115.80
2022-12-04T02:06:38.956Z,208.50
2022-12-04T02:09:06.618Z,204.70
2022-12-04T02:12:12.469Z,183.20
2022-12-04T02:14:53.708Z,118.70
2022-12-04T02:17:28.218Z,170.20
2022-12-04T02:20:32.066Z,151.10
2022-12-04T02:23:25.071Z,149.70
2022-12-04T02:26:37.702Z,166.20
2022-12-04T02:29:15.911Z,177.50
2022-12-04T02:31:52.779Z,175.70
2022-12-04T02:34:30.442Z,164.10
2022-12-04T02:37:06.181Z,140.00
2022-12-04T02:39:40.201Z,104.90
2022-12-04T02:42:16.261Z,167.10
2022-12-04T02:44:55.571Z,151.60
2022-12-04T02:47:24.898Z,134.60
2022-12-04T02:49:58.811Z,131.00
2022-12-04T02:52:34.607Z,147.10
2022-12-04T02:55:10.653Z,112.10
2022-12-04T03:00:08.956Z,147.00
2022-12-04T03:02:57.819Z,115.80
2022-12-04T03:05:48.986Z,114.20
2022-12-04T03:08:21.754Z,119.70
2022-12-04T03:10:52.835Z,89.20
2022-12-04T03:13:30.255Z,106.40
2022-12-04T03:16:06.549Z,214.40
2022-12-04T03:18:53.303Z,97.30
2022-12-04T03:23:56.547Z,146.00
2022-12-04T03:26:39.585Z,55.30
2022-12-04T03:29:30.573Z,174.00
2022-12-04T03:32:06.282Z,81.00
2022-12-04T03:34:48.321Z,35.20
2022-12-04T03:37:21.672Z,111.30
2022-12-04T03:40:01.803Z,102.20
2022-12-04T03:42:40.561Z,99.30
2022-12-04T03:45:30.362Z,95.40
2022-12-04T03:48:30.984Z,145.00
2022-12-04T03:51:03.017Z,148.50
2022-12-04T03:53:39.059Z,83.00
2022-12-04T03:56:10.785Z,72.50
2022-12-04T03:58:40.906Z,122.50
2022-12-04T04:01:11.272Z,113.40
2022-12-04T04:03:45.976Z,98.00
2022-12-04T04:06:18.798Z,184.20
2022-12-04T04:08:51.625Z,99.80
2022-12-04T04:11:24.738Z,69.60
2022-12-04T04:14:15.323Z,93.60
2022-12-04T04:17:06.510Z,76.90
2022-12-04T04:19:57.549Z,90.70
2022-12-04T04:22:44.803Z,90.30
2022-12-04T04:25:15.667Z,101.40
2022-12-04T04:27:42.483Z,97.50
2022-12-04T04:30:10.562Z,88.60
2022-12-04T04:32:57.684Z,102.90
2022-12-04T04:35:33.412Z,76.00
2022-12-04T04:38:24.724Z,67.20
2022-12-04T04:41:10.720Z,120.50
2022-12-04T04:43:51.431Z,70.40
2022-12-04T04:46:28.315Z,79.60
2022-12-04T04:49:00.123Z,107.70
2022-12-04T04:51:30.380Z,44.50
2022-12-04T04:54:00.129Z,93.10
2022-12-04T04:56:27.848Z,56.10
2022-12-04T04:58:54.608Z,83.20
2022-12-04T05:01:26.181Z,109.80
2022-12-04T05:03:53.106Z,80.30
2022-12-04T05:06:19.971Z,84.20
2022-12-04T05:08:48.586Z,101.70
2022-12-04T05:11:16.536Z,64.50
2022-12-04T05:13:43.435Z,62.30
2022-12-04T05:16:12.833Z,82.40
2022-12-04T05:18:40.554Z,88.90
2022-12-04T05:21:16.300Z,86.90
2022-12-04T05:23:43.387Z,112.50
2022-12-04T05:26:10.805Z,91.30
2022-12-04T05:28:38.968Z,79.30
2022-12-04T05:31:05.927Z,47.70
2022-12-04T05:33:32.713Z,81.60
2022-12-04T05:36:01.632Z,129.00
2022-12-04T05:38:29.170Z,107.90
2022-12-04T05:40:58.750Z,108.80
2022-12-04T05:43:25.895Z,85.80
2022-12-04T05:45:52.611Z,101.90
2022-12-04T05:48:19.500Z,68.90
2022-12-04T05:50:46.326Z,64.30
2022-12-04T05:53:13.418Z,25.70
2022-12-04T05:55:40.074Z,67.20
2022-12-04T05:58:06.728Z,102.40
2022-12-04T06:00:33.474Z,127.90
2022-12-04T06:03:00.166Z,126.20
2022-12-04T06:05:26.907Z,105.70
2022-12-04T06:07:53.724Z,95.70
2022-12-04T06:10:21.025Z,97.30
2022-12-04T06:12:47.721Z,90.60
2022-12-04T06:15:14.544Z,96.10
2022-12-04T06:17:41.221Z,83.90
2022-12-04T06:20:11.743Z,126.90
2022-12-04T06:22:38.966Z,48.50
2022-12-04T06:25:06.678Z,123.10
2022-12-04T06:27:35.158Z,95.70
2022-12-04T06:30:02.194Z,106.50
2022-12-04T06:32:28.959Z,59.40
2022-12-04T06:34:55.760Z,112.10
2022-12-04T06:37:24.294Z,97.10
2022-12-04T06:39:51.053Z,45.90
2022-12-04T06:42:17.861Z,92.40
2022-12-04T06:44:44.864Z,77.70
2022-12-04T06:47:11.663Z,127.50
2022-12-04T06:49:38.404Z,104.50
2022-12-04T06:52:05.104Z,93.70
2022-12-04T06:54:31.794Z,111.90
2022-12-04T06:56:58.969Z,153.00
2022-12-04T06:59:25.891Z,92.70
2022-12-04T07:01:52.651Z,99.20
2022-12-04T07:04:20.037Z,102.50
2022-12-04T07:06:46.675Z,78.20
2022-12-04T07:09:16.484Z,57.70
2022-12-04T07:11:44.594Z,57.60
2022-12-04T07:14:12.730Z,109.60
2022-12-04T07:16:41.897Z,69.90
2022-12-04T07:19:11.763Z,82.80
2022-12-04T07:21:38.689Z,74.20
2022-12-04T07:24:05.822Z,77.30
2022-12-04T07:26:32.509Z,67.20
2022-12-04T07:28:59.572Z,100.70
2022-12-04T07:31:28.211Z,166.60
2022-12-04T07:33:55.414Z,129.80
2022-12-04T07:36:24.155Z,106.20
2022-12-04T07:38:51.791Z,134.40
2022-12-04T07:41:19.025Z,145.00
2022-12-04T07:43:45.851Z,218.90
2022-12-04T07:46:16.234Z,85.60
2022-12-04T07:48:44.143Z,142.60
2022-12-04T07:51:16.403Z,151.80
2022-12-04T07:53:43.951Z,93.30
2022-12-04T07:56:11.853Z,115.00
2022-12-04T07:58:41.225Z,88.50
2022-12-04T08:01:12.570Z,94.40
2022-12-04T08:03:47.184Z,94.50
2022-12-04T08:06:19.265Z,171.40
2022-12-04T08:08:47.763Z,133.60
2022-12-04T08:11:17.039Z,138.50
2022-12-04T08:13:44.608Z,149.60
2022-12-04T08:16:12.183Z,130.10
2022-12-04T08:18:40.756Z,138.90
2022-12-04T08:21:13.406Z,98.70
2022-12-04T08:23:41.914Z,136.90
2022-12-04T08:26:09.978Z,137.80
2022-12-04T08:28:37.582Z,128.80
2022-12-04T08:31:12.104Z,106.60
2022-12-04T08:33:40.263Z,94.10
2022-12-04T08:36:09.471Z,104.30
2022-12-04T08:38:37.150Z,127.20
2022-12-04T08:41:06.446Z,109.80
2022-12-04T08:43:34.030Z,172.30
2022-12-04T08:46:03.885Z,99.80
2022-12-04T08:48:32.219Z,35.50
2022-12-04T08:50:59.173Z,134.30
2022-12-04T08:53:26.615Z,128.20
2022-12-04T08:55:53.288Z,134.90
2022-12-04T08:58:20.071Z,133.50
2022-12-04T09:00:47.681Z,139.90
2022-12-04T09:03:16.891Z,90.80
2022-12-04T09:05:48.063Z,129.60
2022-12-04T09:08:16.356Z,53.30
2022-12-04T09:10:44.132Z,137.90
2022-12-04T09:13:11.171Z,113.30
2022-12-04T09:15:39.821Z,79.50
2022-12-04T09:18:07.576Z,154.60
2022-12-04T09:20:34.800Z,176.00
2022-12-04T09:23:04.736Z,104.80
2022-12-04T09:25:37.220Z,138.10
2022-12-04T09:28:04.459Z,155.60
2022-12-04T09:30:31.288Z,127.90
2022-12-04T09:32:58.160Z,171.60
2022-12-04T09:35:25.200Z,133.60
2022-12-04T09:37:52.321Z,162.20
2022-12-04T09:40:33.435Z,207.20
2022-12-04T09:43:12.486Z,219.70
2022-12-04T09:45:47.874Z,174.40
2022-12-04T09:48:17.701Z,129.30
2022-12-04T09:50:47.600Z,121.20
2022-12-04T09:53:28.475Z,169.00
2022-12-04T09:55:58.146Z,146.60
2022-12-04T09:58:35.655Z,273.60
2022-12-04T10:01:04.494Z,137.00
2022-12-04T10:03:32.102Z,175.50
2022-12-04T10:06:19.427Z,227.40
2022-12-04T10:08:52.843Z,107.30
2022-12-04T10:11:32.864Z,207.70
2022-12-04T10:14:12.222Z,172.10
2022-12-04T10:16:51.764Z,172.90
2022-12-04T10:19:37.329Z,175.40
2022-12-04T10:22:29.277Z,231.40
2022-12-04T10:25:02.693Z,191.90
2022-12-04T10:27:39.253Z,132.40
2022-12-04T10:30:20.509Z,224.10
2022-12-04T10:32:55.942Z,231.40
2022-12-04T10:35:29.061Z,148.20
2022-12-04T10:38:14.729Z,195.90
2022-12-04T10:40:54.364Z,205.10
2022-12-04T10:43:40.218Z,213.20
2022-12-04T10:46:25.395Z,222.90
2022-12-04T10:48:59.281Z,246.10
2022-12-04T10:51:27.140Z,293.80
2022-12-04T10:53:56.396Z,270.10
2022-12-04T10:56:25.365Z,183.10
2022-12-04T10:59:03.221Z,174.60
2022-12-04T11:01:32.930Z,192.90
2022-12-04T11:04:07.323Z,217.10
2022-12-04T11:06:35.420Z,291.90
2022-12-04T11:09:03.779Z,265.40
2022-12-04T11:11:34.357Z,198.70
2022-12-04T11:14:01.403Z,213.60
2022-12-04T11:16:44.129Z,272.30
2022-12-04T11:19:21.547Z,175.40
2022-12-04T11:21:49.263Z,254.40
2022-12-04T11:24:22.013Z,270.80
2022-12-04T11:26:50.557Z,292.90
2022-12-04T11:29:25.519Z,233.40
2022-12-04T11:31:55.005Z,219.00
2022-12-04T11:34:32.340Z,344.60
2022-12-04T11:36:59.929Z,167.70
2022-12-04T11:39:34.671Z,148.70
2022-12-04T11:42:05.696Z,297.70
2022-12-04T11:44:35.900Z,235.50
2022-12-04T11:47:04.572Z,220.60
2022-12-04T11:49:32.902Z,234.00
2022-12-04T11:52:02.861Z,214.60
2022-12-04T11:54:39.496Z,233.40
2022-12-04T11:57:23.394Z,312.50
2022-12-04T11:59:59.427Z,257.10
2022-12-04T12:03:04.314Z,276.50
2022-12-04T12:05:46.644Z,236.20
2022-12-04T12:08:30.103Z,242.60
2022-12-04T12:11:11.159Z,232.80
2022-12-04T12:13:58.841Z,245.10
2022-12-04T12:16:48.341Z,208.30
2022-12-04T12:19:47.996Z,235.50
2022-12-04T12:22:14.689Z,239.10
2022-12-04T12:24:53.844Z,311.50
2022-12-04T12:27:31.812Z,263.00
2022-12-04T12:30:21.781Z,260.10
2022-12-04T12:33:07.862Z,228.40
2022-12-04T12:35:57.933Z,273.20
2022-12-04T12:38:47.250Z,271.30
2022-12-04T12:41:27.237Z,290.40
2022-12-04T12:44:03.774Z,248.50
2022-12-04T12:46:36.329Z,223.80
2022-12-04T12:49:16.708Z,335.10
2022-12-04T12:52:17.017Z,237.50
2022-12-04T12:54:58.577Z,177.50
2022-12-04T12:57:41.711Z,228.40
2022-12-04T13:00:19.771Z,224.60
2022-12-04T13:02:53.115Z,313.00
2022-12-04T13:05:30.464Z,298.10
2022-12-04T13:08:06.190Z,275.90
2022-12-04T13:10:41.005Z,246.10
2022-12-04T13:13:16.836Z,182.40
2022-12-04T13:15:50.902Z,184.70
2022-12-04T13:18:27.707Z,263.80
2022-12-04T13:20:59.101Z,280.00
2022-12-04T13:24:00.457Z,281.10
2022-12-04T13:26:49.774Z,247.10
2022-12-04T13:29:31.791Z,268.70
2022-12-04T13:32:27.192Z,240.70
2022-12-04T13:35:24.051Z,277.00
2022-12-04T13:38:15.505Z,194.40
2022-12-04T13:40:47.506Z,225.20
2022-12-04T13:43:15.959Z,258.60
2022-12-04T13:45:46.821Z,239.90
2022-12-04T13:48:13.651Z,301.30
2022-12-04T13:50:40.495Z,299.20
2022-12-04T13:53:31.910Z,309.20
2022-12-04T13:56:03.049Z,252.80
2022-12-04T13:58:35.517Z,236.10
2022-12-04T14:01:20.739Z,311.20
2022-12-04T14:03:58.821Z,276.60
2022-12-04T14:06:34.902Z,332.00
2022-12-04T14:11:42.184Z,203.00
2022-12-04T14:14:38.409Z,298.40
2022-12-04T14:17:16.500Z,176.60
2022-12-04T14:19:50.695Z,200.20
2022-12-04T14:22:29.457Z,330.50
2022-12-04T14:25:24.108Z,271.90
2022-12-04T14:27:53.058Z,310.50
2022-12-04T14:30:34.253Z,339.50
2022-12-04T14:33:22.037Z,315.20
2022-12-04T14:35:54.587Z,370.40
2022-12-04T14:38:22.945Z,298.00
2022-12-04T14:40:55.539Z,303.00
2022-12-04T14:43:25.306Z,324.60
2022-12-04T14:46:03.037Z,244.70
2022-12-04T14:48:57.964Z,200.60
2022-12-04T14:51:41.036Z,127.40
2022-12-04T14:54:40.417Z,215.50
2022-12-04T14:57:24.220Z,182.80
2022-12-04T14:59:54.052Z,228.20
2022-12-04T15:02:39.912Z,198.40
2022-12-04T15:05:16.043Z,255.70
2022-12-04T15:07:53.022Z,203.80
2022-12-04T15:10:45.040Z,196.50
2022-12-04T15:13:15.987Z,176.40
2022-12-04T15:15:46.266Z,162.30
2022-12-04T15:18:15.621Z,177.50
2022-12-04T15:20:51.763Z,231.00
2022-12-04T15:23:24.947Z,193.40
2022-12-04T15:25:55.159Z,198.90
2022-12-04T15:28:33.485Z,236.90
2022-12-04T15:31:02.554Z,165.60
2022-12-04T15:33:35.331Z,289.80
2022-12-04T15:36:15.265Z,296.20
2022-12-04T15:38:42.215Z,216.10
2022-12-04T15:41:34.361Z,231.40
2022-12-04T15:44:02.385Z,238.00
2022-12-04T15:46:37.355Z,210.50
2022-12-04T15:49:31.029Z,227.20
2022-12-04T15:52:17.324Z,223.80
2022-12-04T15:54:47.833Z,222.80
2022-12-04T15:57:19.893Z,180.50
2022-12-04T15:59:51.255Z,288.50
2022-12-04T16:02:40.936Z,196.70
2022-12-04T16:05:19.795Z,159.10
2022-12-04T16:08:00.769Z,192.90
2022-12-04T16:10:35.263Z,165.70
2022-12-04T16:13:04.368Z,231.60
2022-12-04T16:15:40.949Z,189.50
2022-12-04T16:18:12.963Z,120.50
2022-12-04T16:20:40.801Z,266.00
2022-12-04T16:23:07.440Z,199.30
2022-12-04T16:25:34.404Z,161.80
2022-12-04T16:28:01.306Z,259.30
2022-12-04T16:30:31.532Z,208.80
2022-12-04T16:32:58.282Z,249.30
2022-12-04T16:35:25.108Z,249.00
2022-12-04T16:37:55.911Z,221.50
2022-12-04T16:40:22.624Z,282.40
2022-12-04T16:42:49.459Z,241.70
2022-12-04T16:45:30.839Z,270.70
2022-12-04T16:47:57.855Z,247.40
2022-12-04T16:50:26.283Z,264.60
2022-12-04T16:52:54.566Z,266.40
2022-12-04T16:55:28.699Z,287.30
2022-12-04T16:57:55.364Z,269.60
2022-12-04T17:00:22.136Z,215.60
2022-12-04T17:02:49.100Z,321.50
2022-12-04T17:05:23.009Z,181.20
2022-12-04T17:07:49.880Z,220.70
2022-12-04T17:10:23.276Z,316.10
2022-12-04T17:12:54.275Z,225.60
2022-12-04T17:15:21.646Z,302.10
2022-12-04T17:17:48.501Z,271.00
2022-12-04T17:20:17.940Z,214.50
2022-12-04T17:22:44.625Z,274.70
2022-12-04T17:25:12.079Z,239.60
2022-12-04T17:27:39.336Z,290.40
2022-12-04T17:30:07.862Z,319.90
2022-12-04T17:32:35.192Z,232.10
2022-12-04T17:35:04.775Z,218.60
2022-12-04T17:37:32.851Z,162.40
2022-12-04T17:39:59.653Z,220.50
2022-12-04T17:42:27.228Z,269.80
2022-12-04T17:44:54.343Z,252.20
2022-12-04T17:47:21.305Z,240.10
2022-12-04T17:49:48.048Z,231.20
2022-12-04T17:52:14.798Z,278.80
2022-12-04T17:54:41.572Z,155.30
2022-12-04T17:57:08.425Z,294.20
2022-12-04T17:59:35.196Z,182.90
2022-12-04T18:02:01.837Z,365.50
2022-12-04T18:04:28.528Z,218.70
2022-12-04T18:06:56.035Z,274.50
2022-12-04T18:09:22.734Z,229.00
2022-12-04T18:11:49.426Z,255.90
2022-12-04T18:14:19.533Z,196.50
2022-12-04T18:16:52.678Z,287.50
2022-12-04T18:19:21.198Z,276.80
2022-12-04T18:21:47.933Z,309.30
2022-12-04T18:24:14.966Z,314.70
2022-12-04T18:26:47.417Z,327.40
2022-12-04T18:29:18.020Z,246.40
2022-12-04T18:31:45.490Z,241.90
2022-12-04T18:34:13.129Z,323.80
2022-12-04T18:36:40.742Z,298.50
2022-12-04T18:39:12.664Z,280.40
2022-12-04T18:41:39.553Z,199.80
2022-12-04T18:44:06.404Z,251.20
2022-12-04T18:46:33.261Z,207.00
2022-12-04T18:49:00.593Z,288.50
2022-12-04T18:51:39.437Z,234.90
2022-12-04T18:54:10.424Z,212.20
2022-12-04T18:56:38.165Z,171.20
2022-12-04T18:59:12.444Z,294.70
2022-12-04T19:01:41.297Z,342.00
2022-12-04T19:04:10.243Z,308.50
2022-12-04T19:06:39.641Z,302.70
2022-12-04T19:09:10.653Z,281.50
2022-12-04T19:11:38.818Z,283.90
2022-12-04T19:14:16.133Z,334.70
2022-12-04T19:16:45.843Z,238.40
2022-12-04T19:19:14.159Z,180.30
2022-12-04T19:21:41.213Z,224.40
2022-12-04T19:24:09.788Z,234.30
2022-12-04T19:26:37.178Z,209.20
2022-12-04T19:29:05.048Z,223.40
2022-12-04T19:31:34.254Z,207.80
2022-12-04T19:34:02.093Z,309.40
2022-12-04T19:36:30.785Z,207.10
2022-12-04T19:38:58.271Z,190.20
2022-12-04T19:41:29.485Z,236.70
2022-12-04T19:44:00.155Z,283.20
2022-12-04T19:46:29.929Z,251.70
2022-12-04T19:49:00.947Z,332.50
2022-12-04T19:51:28.323Z,204.00
2022-12-04T19:53:55.093Z,261.10
2022-12-04T19:56:24.337Z,308.70
2022-12-04T19:58:52.621Z,256.80
2022-12-04T20:01:24.241Z,218.00
2022-12-04T20:03:51.323Z,277.00
2022-12-04T20:06:22.192Z,237.40
2022-12-04T20:08:55.341Z,289.10
2022-12-04T20:11:23.007Z,311.00
2022-12-04T20:13:55.098Z,236.60
2022-12-04T20:16:26.824Z,207.30
2022-12-04T20:18:54.245Z,211.30
2022-12-04T20:21:25.648Z,338.80
2022-12-04T20:23:53.744Z,188.10
2022-12-04T20:26:23.665Z,248.10
2022-12-04T20:28:50.787Z,220.80
2022-12-04T20:31:26.318Z,173.90
2022-12-04T20:33:54.791Z,178.10
2022-12-04T20:36:24.896Z,255.20
2022-12-04T20:38:54.867Z,276.50
2022-12-04T20:41:22.143Z,210.80
2022-12-04T20:43:48.866Z,290.70
2022-12-04T20:46:16.801Z,146.20
2022-12-04T20:48:47.812Z,292.10
2022-12-04T20:51:16.998Z,203.80
2022-12-04T20:53:45.695Z,206.40
2022-12-04T20:56:13.478Z,211.50
2022-12-04T20:58:42.930Z,188.50
2022-12-04T21:01:17.958Z,215.50
2022-12-04T21:03:45.987Z,202.70
2022-12-04T21:06:14.082Z,199.50
2022-12-04T21:08:55.399Z,261.10
2022-12-04T21:11:33.228Z,230.90
2022-12-04T21:14:20.223Z,216.60
2022-12-04T21:16:47.453Z,179.80
2022-12-04T21:19:16.901Z,196.40
2022-12-04T21:21:44.161Z,234.50
2022-12-04T21:24:13.044Z,220.50
2022-12-04T21:26:44.073Z,257.00
2022-12-04T21:29:11.074Z,178.90
2022-12-04T21:31:38.544Z,249.60
2022-12-04T21:34:07.710Z,222.80
2022-12-04T21:36:34.528Z,195.90
2022-12-04T21:39:01.227Z,252.80
2022-12-04T21:41:46.583Z,287.20
2022-12-04T21:44:16.467Z,217.80
2022-12-04T21:46:44.544Z,179.90
2022-12-04T21:49:13.064Z,221.60
2022-12-04T21:51:56.921Z,155.10
2022-12-04T21:54:26.732Z,188.70
2022-12-04T21:56:54.132Z,150.40
2022-12-04T21:59:20.956Z,196.10
2022-12-04T22:01:47.848Z,233.00
2022-12-04T22:04:15.158Z,259.90
2022-12-04T22:06:42.526Z,254.40
2022-12-04T22:09:12.128Z,180.50
2022-12-04T22:11:42.781Z,155.20
2022-12-04T22:14:11.038Z,246.20
2022-12-04T22:16:43.232Z,127.60
2022-12-04T22:19:11.948Z,243.50
2022-12-04T22:21:39.323Z,139.90
2022-12-04T22:24:06.984Z,206.30
2022-12-04T22:26:33.763Z,219.80
2022-12-04T22:29:00.660Z,189.20
2022-12-04T22:31:29.813Z,219.60
2022-12-04T22:33:59.464Z,250.60
2022-12-04T22:36:32.075Z,233.40
2022-12-04T22:39:09.430Z,243.50
2022-12-04T22:41:37.013Z,220.40
2022-12-04T22:44:04.518Z,163.60
2022-12-04T22:46:32.079Z,260.50
2022-12-04T22:49:00.035Z,171.10
2022-12-04T22:51:27.853Z,280.50
2022-12-04T22:53:57.375Z,226.90
2022-12-04T22:56:27.985Z,180.20
2022-12-04T22:58:57.139Z,233.90
2022-12-04T23:01:29.722Z,120.80
2022-12-04T23:03:56.985Z,135.40
2022-12-04T23:06:26.766Z,97.80
2022-12-04T23:08:59.152Z,127.60
2022-12-04T23:11:27.435Z,181.70
2022-12-04T23:13:56.637Z,220.00
2022-12-04T23:16:24.232Z,244.30
2022-12-04T23:18:52.442Z,152.20
2022-12-04T23:21:20.712Z,196.80
2022-12-04T23:23:48.494Z,176.50
2022-12-04T23:26:21.475Z,131.40
2022-12-04T23:28:48.300Z,172.00
2022-12-04T23:31:15.647Z,230.00
2022-12-04T23:33:42.537Z,206.10
2022-12-04T23:36:11.334Z,139.40
2022-12-04T23:38:39.974Z,106.50
2022-12-04T23:41:15.470Z,112.40
2022-12-04T23:43:43.251Z,239.00
2022-12-04T23:46:11.888Z,173.00
2022-12-04T23:48:40.235Z,220.60
2022-12-04T23:51:07.980Z,177.60
2022-12-04T23:53:35.350Z,182.30
2022-12-04T23:56:07.453Z,130.00
2022-12-04T23:58:35.056Z,161.40
